createdAt,value
2022-09-04T00:02:32.131Z,56.10
2022-09-04T00:05:04.909Z,55.69
2022-09-04T00:07:57.019Z,55.89
2022-09-04T00:10:40.897Z,55.61
2022-09-04T00:13:32.296Z,55.80
2022-09-04T00:16:14.226Z,55.80
2022-09-04T00:18:57.424Z,56.18
2022-09-04T00:21:48.900Z,55.83
2022-09-04T00:24:16.755Z,55.85
2022-09-04T00:27:03.421Z,55.68
2022-09-04T00:29:51.751Z,55.84
2022-09-04T00:32:34.189Z,55.97
2022-09-04T00:35:39.630Z,55.69
2022-09-04T00:38:15.559Z,56.18
2022-09-04T00:40:56.879Z,56.31
2022-09-04T00:43:29.523Z,56.10
2022-09-04T00:46:20.434Z,55.76
2022-09-04T00:48:52.669Z,56.17
2022-09-04T00:51:29.817Z,56.03
2022-09-04T00:54:20.821Z,56.03
2022-09-04T00:57:21.377Z,55.72
2022-09-04T01:00:16.590Z,56.24
2022-09-04T01:03:07.431Z,56.16
2022-09-04T01:05:47.520Z,56.10
2022-09-04T01:08:32.708Z,55.94
2022-09-04T01:11:11.412Z,55.93
2022-09-04T01:13:42.283Z,56.20
2022-09-04T01:16:32.952Z,56.34
2022-09-04T01:19:07.669Z,55.91
2022-09-04T01:21:46.325Z,55.96
2022-09-04T01:24:38.079Z,56.00
2022-09-04T01:27:19.172Z,56.21
2022-09-04T01:30:13.523Z,56.21
2022-09-04T01:33:09.082Z,55.89
2022-09-04T01:35:55.819Z,55.83
2022-09-04T01:38:43.390Z,56.18
2022-09-04T01:41:28.180Z,56.30
2022-09-04T01:43:54.880Z,56.44
2022-09-04T01:46:24.578Z,56.03
2022-09-04T01:48:51.164Z,56.23
2022-09-04T01:51:34.108Z,56.23
2022-09-04T01:54:23.460Z,56.25
2022-09-04T01:57:12.640Z,56.30
2022-09-04T01:59:53.425Z,56.22
2022-09-04T02:02:38.680Z,56.04
2022-09-04T02:05:48.432Z,56.28
2022-09-04T02:08:21.310Z,56.30
2022-09-04T02:11:16.749Z,56.22
2022-09-04T02:13:56.452Z,56.42
2022-09-04T02:16:26.818Z,56.56
2022-09-04T02:19:12.292Z,56.42
2022-09-04T02:21:51.410Z,56.16
2022-09-04T02:24:31.103Z,56.04
2022-09-04T02:27:04.715Z,56.32
2022-09-04T02:29:52.682Z,56.21
2022-09-04T02:32:32.744Z,56.51
2022-09-04T02:35:08.883Z,56.32
2022-09-04T02:37:38.424Z,56.54
2022-09-04T02:40:10.413Z,56.04
2022-09-04T02:42:55.284Z,56.55
2022-09-04T02:45:36.953Z,56.60
2022-09-04T02:48:13.756Z,56.21
2022-09-04T02:51:02.233Z,56.54
2022-09-04T02:53:35.336Z,56.35
2022-09-04T02:56:39.409Z,56.27
2022-09-04T02:59:48.000Z,56.42
2022-09-04T03:02:42.931Z,56.04
2022-09-04T03:05:25.149Z,56.58
2022-09-04T03:08:00.674Z,56.38
2022-09-04T03:10:48.257Z,56.39
2022-09-04T03:13:23.493Z,56.61
2022-09-04T03:15:55.815Z,56.69
2022-09-04T03:18:52.828Z,56.23
2022-09-04T03:21:41.888Z,56.24
2022-09-04T03:24:17.836Z,56.08
2022-09-04T03:26:47.022Z,56.19
2022-09-04T03:29:34.652Z,56.47
2022-09-04T03:32:15.195Z,56.31
2022-09-04T03:34:42.688Z,56.43
2022-09-04T03:37:43.548Z,56.46
2022-09-04T03:40:35.354Z,56.78
2022-09-04T03:43:13.970Z,56.29
2022-09-04T03:46:06.563Z,56.53
2022-09-04T03:48:56.512Z,56.43
2022-09-04T03:51:35.249Z,56.52
2022-09-04T03:54:24.140Z,56.58
2022-09-04T03:57:03.131Z,56.40
2022-09-04T03:59:48.440Z,56.29
2022-09-04T04:02:23.963Z,56.16
2022-09-04T04:05:00.355Z,56.48
2022-09-04T04:07:38.801Z,56.37
2022-09-04T04:10:35.401Z,56.73
2022-09-04T04:13:12.262Z,56.46
2022-09-04T04:15:42.124Z,56.72
2022-09-04T04:18:20.321Z,56.47
2022-09-04T04:20:46.775Z,56.80
2022-09-04T04:23:36.367Z,56.58
2022-09-04T04:26:08.173Z,56.68
2022-09-04T04:29:12.217Z,56.77
2022-09-04T04:32:11.284Z,56.33
2022-09-04T04:34:47.229Z,56.43
2022-09-04T04:37:24.969Z,56.68
2022-09-04T04:39:57.158Z,56.75
2022-09-04T04:42:29.528Z,56.78
2022-09-04T04:45:26.973Z,56.78
2022-09-04T04:48:08.535Z,56.95
2022-09-04T04:50:59.380Z,56.90
2022-09-04T04:53:46.973Z,56.74
2022-09-04T04:56:33.992Z,56.34
2022-09-04T04:59:23.221Z,56.79
2022-09-04T05:02:09.407Z,56.49
2022-09-04T05:04:42.081Z,56.39
2022-09-04T05:07:32.067Z,56.88
2022-09-04T05:10:05.915Z,56.89
2022-09-04T05:12:48.549Z,57.03
2022-09-04T05:15:58.131Z,56.98
2022-09-04T05:18:32.057Z,56.70
2022-09-04T05:21:18.094Z,56.80
2022-09-04T05:23:54.781Z,56.51
2022-09-04T05:26:36.624Z,56.63
2022-09-04T05:29:28.223Z,56.71
2022-09-04T05:32:31.438Z,57.08
2022-09-04T05:35:06.957Z,56.78
2022-09-04T05:37:43.077Z,57.03
2022-09-04T05:40:14.753Z,56.82
2022-09-04T05:43:13.125Z,57.14
2022-09-04T05:46:10.597Z,56.91
2022-09-04T05:49:03.581Z,56.94
2022-09-04T05:51:43.182Z,57.07
2022-09-04T05:54:24.881Z,56.96
2022-09-04T05:57:50.525Z,56.78
2022-09-04T06:00:18.166Z,56.97
2022-09-04T06:02:56.522Z,56.64
2022-09-04T06:06:18.564Z,56.69
2022-09-04T06:09:13.710Z,56.67
2022-09-04T06:11:52.267Z,56.62
2022-09-04T06:14:37.425Z,56.72
2022-09-04T06:17:34.927Z,56.87
2022-09-04T06:20:28.296Z,56.71
2022-09-04T06:23:07.263Z,56.63
2022-09-04T06:25:55.707Z,57.11
2022-09-04T06:28:46.546Z,56.67
2022-09-04T06:31:19.004Z,56.79
2022-09-04T06:34:13.527Z,57.14
2022-09-04T06:36:42.977Z,57.21
2022-09-04T06:39:31.008Z,57.28
2022-09-04T06:42:07.080Z,57.37
2022-09-04T06:44:44.149Z,57.50
2022-09-04T06:47:21.069Z,57.33
2022-09-04T06:49:50.461Z,57.57
2022-09-04T06:52:25.360Z,57.73
2022-09-04T06:55:39.824Z,57.58
2022-09-04T06:58:37.499Z,57.79
2022-09-04T07:01:11.821Z,57.95
2022-09-04T07:03:57.264Z,57.84
2022-09-04T07:06:59.147Z,57.62
2022-09-04T07:09:27.720Z,57.63
2022-09-04T07:12:16.065Z,58.02
2022-09-04T07:14:50.568Z,57.98
2022-09-04T07:17:44.159Z,57.90
2022-09-04T07:20:17.714Z,57.65
2022-09-04T07:22:56.340Z,57.95
2022-09-04T07:25:33.609Z,58.35
2022-09-04T07:28:25.272Z,58.29
2022-09-04T07:31:33.551Z,58.26
2022-09-04T07:34:22.740Z,57.93
2022-09-04T07:36:54.361Z,58.19
2022-09-04T07:39:39.962Z,58.28
2022-09-04T07:42:26.302Z,57.85
2022-09-04T07:45:12.448Z,57.85
2022-09-04T07:48:17.041Z,58.12
2022-09-04T07:51:03.180Z,58.25
2022-09-04T07:53:51.529Z,58.17
2022-09-04T07:56:35.328Z,58.13
2022-09-04T07:59:34.370Z,57.69
2022-09-04T08:02:11.508Z,57.70
2022-09-04T08:05:14.496Z,58.22
2022-09-04T08:07:41.003Z,58.08
2022-09-04T08:10:30.417Z,58.26
2022-09-04T08:13:33.625Z,57.70
2022-09-04T08:16:08.096Z,57.86
2022-09-04T08:18:37.688Z,58.03
2022-09-04T08:21:29.018Z,57.89
2022-09-04T08:24:10.801Z,57.95
2022-09-04T08:26:49.432Z,58.14
2022-09-04T08:29:22.041Z,58.22
2022-09-04T08:32:23.801Z,58.18
2022-09-04T08:35:23.347Z,57.81
2022-09-04T08:38:11.676Z,58.06
2022-09-04T08:41:15.323Z,57.81
2022-09-04T08:43:50.849Z,58.05
2022-09-04T08:46:35.662Z,57.84
2022-09-04T08:49:36.039Z,57.83
2022-09-04T08:52:27.464Z,57.68
2022-09-04T08:55:24.792Z,58.12
2022-09-04T08:58:19.286Z,58.01
2022-09-04T09:01:07.804Z,58.19
2022-09-04T09:03:59.240Z,57.78
2022-09-04T09:06:51.265Z,57.80
2022-09-04T09:09:54.924Z,57.85
2022-09-04T09:12:47.161Z,57.84
2022-09-04T09:15:36.349Z,57.97
2022-09-04T09:18:21.489Z,58.18
2022-09-04T09:21:00.180Z,58.22
2022-09-04T09:23:44.679Z,58.30
2022-09-04T09:26:59.995Z,57.94
2022-09-04T09:29:45.098Z,57.94
2022-09-04T09:32:35.340Z,58.29
2022-09-04T09:35:39.432Z,58.06
2022-09-04T09:38:27.656Z,58.16
2022-09-04T09:41:25.001Z,58.17
2022-09-04T09:44:13.256Z,57.81
2022-09-04T09:46:54.189Z,58.05
2022-09-04T09:49:57.841Z,58.06
2022-09-04T09:52:50.345Z,58.27
2022-09-04T09:55:49.009Z,58.17
2022-09-04T09:58:24.233Z,58.26
2022-09-04T10:01:00.406Z,58.34
2022-09-04T10:04:10.659Z,58.30
2022-09-04T10:06:52.443Z,57.98
2022-09-04T10:09:37.715Z,58.20
2022-09-04T10:12:45.754Z,58.30
2022-09-04T10:15:40.343Z,58.20
2022-09-04T10:18:35.927Z,58.15
2022-09-04T10:21:25.897Z,58.02
2022-09-04T10:24:43.186Z,58.04
2022-09-04T10:27:12.260Z,57.86
2022-09-04T10:29:53.869Z,58.20
2022-09-04T10:32:20.292Z,57.80
2022-09-04T10:35:21.790Z,57.73
2022-09-04T10:37:53.819Z,57.79
2022-09-04T10:40:57.904Z,58.06
2022-09-04T10:43:24.472Z,58.25
2022-09-04T10:46:29.317Z,58.09
2022-09-04T10:49:33.772Z,58.08
2022-09-04T10:53:01.253Z,58.06
2022-09-04T10:55:47.240Z,58.02
2022-09-04T10:58:44.979Z,58.03
2022-09-04T11:01:26.968Z,58.23
2022-09-04T11:04:28.778Z,58.14
2022-09-04T11:07:36.927Z,58.29
2022-09-04T11:10:35.656Z,58.25
2022-09-04T11:13:23.779Z,58.35
2022-09-04T11:16:25.372Z,58.09
2022-09-04T11:19:10.404Z,58.27
2022-09-04T11:21:42.697Z,58.37
2022-09-04T11:24:30.406Z,58.07
2022-09-04T11:27:17.090Z,58.10
2022-09-04T11:30:04.165Z,58.02
2022-09-04T11:32:53.072Z,58.12
2022-09-04T11:35:56.818Z,58.04
2022-09-04T11:38:48.116Z,57.94
2022-09-04T11:41:40.021Z,58.10
2022-09-04T11:44:28.568Z,57.93
2022-09-04T11:47:16.336Z,57.96
2022-09-04T11:50:20.521Z,58.35
2022-09-04T11:53:24.677Z,58.35
2022-09-04T11:56:13.069Z,58.23
2022-09-04T11:59:15.688Z,58.16
2022-09-04T12:02:12.121Z,58.32
2022-09-04T12:05:05.663Z,58.27
2022-09-04T12:08:10.669Z,58.32
2022-09-04T12:11:04.631Z,58.57
2022-09-04T12:13:34.080Z,58.31
2022-09-04T12:16:06.540Z,58.48
2022-09-04T12:19:00.284Z,58.54
2022-09-04T12:21:41.946Z,58.02
2022-09-04T12:24:26.609Z,58.15
2022-09-04T12:27:11.576Z,58.28
2022-09-04T12:30:06.569Z,58.56
2022-09-04T12:32:50.819Z,58.52
2022-09-04T12:35:35.585Z,58.32
2022-09-04T12:38:25.740Z,58.28
2022-09-04T12:41:11.732Z,58.46
2022-09-04T12:43:47.156Z,57.98
2022-09-04T12:46:14.429Z,58.34
2022-09-04T12:49:06.195Z,58.39
2022-09-04T12:51:55.800Z,58.43
2022-09-04T12:54:31.552Z,58.40
2022-09-04T12:57:16.010Z,58.58
2022-09-04T12:59:48.097Z,58.44
2022-09-04T13:02:20.759Z,58.43
2022-09-04T13:05:10.088Z,58.24
2022-09-04T13:07:47.428Z,58.55
2022-09-04T13:10:13.845Z,58.53
2022-09-04T13:12:46.754Z,58.37
2022-09-04T13:15:29.514Z,58.33
2022-09-04T13:17:59.047Z,58.51
2022-09-04T13:20:40.195Z,58.10
2022-09-04T13:23:37.058Z,58.48
2022-09-04T13:26:36.137Z,58.39
2022-09-04T13:29:30.141Z,58.25
2022-09-04T13:32:54.046Z,58.21
2022-09-04T13:35:36.758Z,58.30
2022-09-04T13:38:29.985Z,58.56
2022-09-04T13:41:34.396Z,58.53
2022-09-04T13:44:10.957Z,58.47
2022-09-04T13:46:43.658Z,58.53
2022-09-04T13:49:27.916Z,58.81
2022-09-04T13:51:59.760Z,58.56
2022-09-04T13:54:33.544Z,58.77
2022-09-04T13:57:08.401Z,58.46
2022-09-04T13:59:34.931Z,58.58
2022-09-04T14:02:04.824Z,58.71
2022-09-04T14:04:34.802Z,58.34
2022-09-04T14:07:06.211Z,58.54
2022-09-04T14:09:37.100Z,58.66
2022-09-04T14:12:13.546Z,58.53
2022-09-04T14:14:48.560Z,58.82
2022-09-04T14:17:17.332Z,58.86
2022-09-04T14:19:46.793Z,58.58
2022-09-04T14:22:19.347Z,58.75
2022-09-04T14:25:15.897Z,58.99
2022-09-04T14:27:50.691Z,58.55
2022-09-04T14:30:24.560Z,58.70
2022-09-04T14:33:19.391Z,58.82
2022-09-04T14:36:24.867Z,58.66
2022-09-04T14:39:15.636Z,58.93
2022-09-04T14:41:45.096Z,58.86
2022-09-04T14:44:44.042Z,58.96
2022-09-04T14:47:55.820Z,58.90
2022-09-04T14:50:24.626Z,58.49
2022-09-04T14:52:53.270Z,58.62
2022-09-04T14:56:07.501Z,58.62
2022-09-04T14:58:42.043Z,58.44
2022-09-04T15:01:20.180Z,58.41
2022-09-04T15:04:37.243Z,58.16
2022-09-04T15:07:29.637Z,58.13
2022-09-04T15:10:14.532Z,58.27
2022-09-04T15:12:43.542Z,57.90
2022-09-04T15:15:16.297Z,58.17
2022-09-04T15:18:02.463Z,58.45
2022-09-04T15:20:29.200Z,58.75
2022-09-04T15:23:01.297Z,58.69
2022-09-04T15:25:59.205Z,58.34
2022-09-04T15:28:38.377Z,58.15
2022-09-04T15:31:16.491Z,58.33
2022-09-04T15:33:44.396Z,58.60
2022-09-04T15:36:23.657Z,58.64
2022-09-04T15:38:55.541Z,58.23
2022-09-04T15:41:26.839Z,58.16
2022-09-04T15:44:08.741Z,58.56
2022-09-04T15:46:55.809Z,58.24
2022-09-04T15:49:25.241Z,58.26
2022-09-04T15:52:18.341Z,58.68
2022-09-04T15:54:44.804Z,58.42
2022-09-04T15:57:17.301Z,58.60
2022-09-04T15:59:54.418Z,58.52
2022-09-04T16:02:25.452Z,58.41
2022-09-04T16:05:03.304Z,58.33
2022-09-04T16:07:36.494Z,58.73
2022-09-04T16:10:24.633Z,58.87
2022-09-04T16:13:01.638Z,58.51
2022-09-04T16:16:03.635Z,58.36
2022-09-04T16:18:58.501Z,58.83
2022-09-04T16:21:40.624Z,58.74
2022-09-04T16:24:16.316Z,58.41
2022-09-04T16:26:48.872Z,58.91
2022-09-04T16:29:36.599Z,58.93
2022-09-04T16:32:05.952Z,58.52
2022-09-04T16:34:55.500Z,58.70
2022-09-04T16:37:30.425Z,58.63
2022-09-04T16:40:18.263Z,58.70
2022-09-04T16:42:54.217Z,58.74
2022-09-04T16:45:25.261Z,58.55
2022-09-04T16:48:25.083Z,58.84
2022-09-04T16:51:25.928Z,58.80
2022-09-04T16:53:54.112Z,58.48
2022-09-04T16:56:37.056Z,58.66
2022-09-04T16:59:18.760Z,58.95
2022-09-04T17:02:32.175Z,58.97
2022-09-04T17:05:21.492Z,58.87
2022-09-04T17:08:12.249Z,59.11
2022-09-04T17:11:02.824Z,58.66
2022-09-04T17:13:44.037Z,58.47
2022-09-04T17:16:15.181Z,58.64
2022-09-04T17:18:47.048Z,58.72
2022-09-04T17:27:53.558Z,58.55
2022-09-04T17:29:09.733Z,58.51
2022-09-04T17:29:14.170Z,58.72
2022-09-04T17:31:04.661Z,58.38
2022-09-04T17:36:50.609Z,58.70
2022-09-04T17:40:42.578Z,58.86
2022-09-04T17:40:48.434Z,58.86
2022-09-04T17:42:24.339Z,58.64
2022-09-04T17:45:22.165Z,59.01
2022-09-04T17:48:01.846Z,58.76
2022-09-04T17:50:28.841Z,58.86
2022-09-04T17:53:12.095Z,58.65
2022-09-04T17:55:47.257Z,58.62
2022-09-04T17:58:35.526Z,59.01
2022-09-04T18:01:15.001Z,58.82
2022-09-04T18:04:21.160Z,58.77
2022-09-04T18:07:44.755Z,58.77
2022-09-04T18:09:59.169Z,58.54
2022-09-04T18:12:31.595Z,58.56
2022-09-04T18:15:32.720Z,58.75
2022-09-04T18:17:54.993Z,58.73
2022-09-04T18:20:31.309Z,58.91
2022-09-04T18:23:06.233Z,58.79
2022-09-04T18:25:51.960Z,58.89
2022-09-04T18:28:29.457Z,58.51
2022-09-04T18:37:12.959Z,58.72
2022-09-04T18:37:19.632Z,59.03
2022-09-04T18:37:45.051Z,58.66
2022-09-04T18:41:56.874Z,58.97
2022-09-04T18:50:24.956Z,58.94
2022-09-04T18:50:46.625Z,59.20
2022-09-04T18:50:50.871Z,58.83
2022-09-04T18:52:13.157Z,58.47
2022-09-04T18:54:41.870Z,58.69
2022-09-04T18:57:24.613Z,58.75
2022-09-04T18:59:58.381Z,58.60
2022-09-04T19:02:53.251Z,58.70
2022-09-04T19:05:21.596Z,58.71
2022-09-04T19:07:50.048Z,58.84
2022-09-04T19:10:25.687Z,58.94
2022-09-04T19:12:52.433Z,59.00
2022-09-04T19:15:59.076Z,58.79
2022-09-04T19:18:43.565Z,58.84
2022-09-04T19:21:14.277Z,58.94
2022-09-04T19:24:10.038Z,58.48
2022-09-04T19:26:41.633Z,59.06
2022-09-04T19:29:36.778Z,58.45
2022-09-04T19:32:10.008Z,59.09
2022-09-04T19:34:58.470Z,58.67
2022-09-04T19:39:41.419Z,59.06
2022-09-04T19:45:57.692Z,59.05
2022-09-04T19:45:57.692Z,58.71
2022-09-04T19:46:29.511Z,58.78
2022-09-04T19:51:08.076Z,58.92
2022-09-04T19:53:33.980Z,59.01
2022-09-04T19:55:23.358Z,58.77
2022-09-04T19:57:53.937Z,58.79
2022-09-04T20:00:42.943Z,58.73
2022-09-04T20:03:29.773Z,58.87
2022-09-04T20:06:21.637Z,58.76
2022-09-04T20:09:30.756Z,58.78
2022-09-04T20:12:06.027Z,58.53
2022-09-04T20:14:54.621Z,58.99
2022-09-04T20:17:28.345Z,58.78
2022-09-04T20:19:58.543Z,58.76
2022-09-04T20:22:28.717Z,58.94
2022-09-04T20:25:13.465Z,58.72
2022-09-04T20:27:53.909Z,59.03
2022-09-04T20:30:24.992Z,58.91
2022-09-04T20:33:26.214Z,58.59
2022-09-04T20:36:03.611Z,59.13
2022-09-04T20:38:50.785Z,59.02
2022-09-04T20:41:26.125Z,58.58
2022-09-04T20:44:04.329Z,58.80
2022-09-04T20:52:45.271Z,59.12
2022-09-04T20:52:54.192Z,58.45
2022-09-04T20:52:55.881Z,58.75
2022-09-04T20:55:29.868Z,58.77
2022-09-04T21:02:05.138Z,58.62
2022-09-04T21:03:21.625Z,58.52
2022-09-04T21:03:59.095Z,58.76
2022-09-04T21:06:33.195Z,58.96
2022-09-04T21:09:33.957Z,58.80
2022-09-04T21:12:15.891Z,58.65
2022-09-04T21:14:45.561Z,59.00
2022-09-04T21:17:47.028Z,58.70
2022-09-04T21:20:23.145Z,58.78
2022-09-04T21:23:16.761Z,59.03
2022-09-04T21:26:01.467Z,58.71
2022-09-04T21:28:46.725Z,58.73
2022-09-04T21:31:16.145Z,59.21
2022-09-04T21:34:04.896Z,58.76
2022-09-04T21:36:41.877Z,58.68
2022-09-04T21:39:29.913Z,58.83
2022-09-04T21:42:20.045Z,59.05
2022-09-04T21:45:14.063Z,58.79
2022-09-04T21:47:57.894Z,58.88
2022-09-04T21:51:06.280Z,58.54
2022-09-04T21:54:08.701Z,58.49
2022-09-04T22:02:27.988Z,58.97
2022-09-04T22:02:38.833Z,58.71
2022-09-04T22:03:31.785Z,59.00
2022-09-04T22:06:04.432Z,58.55
2022-09-04T22:13:31.083Z,58.72
2022-09-04T22:13:37.962Z,58.71
2022-09-04T22:14:26.182Z,58.80
2022-09-04T22:17:40.327Z,59.08
2022-09-04T22:20:12.937Z,58.72
2022-09-04T22:23:07.187Z,58.67
2022-09-04T22:25:41.077Z,58.90
2022-09-04T22:28:26.168Z,59.10
2022-09-04T22:31:14.349Z,59.06
2022-09-04T22:34:16.776Z,58.97
2022-09-04T22:36:46.919Z,59.05
2022-09-04T22:40:14.298Z,58.86
2022-09-04T22:42:50.834Z,58.73
2022-09-04T22:45:32.685Z,59.17
2022-09-04T22:48:01.857Z,58.61
2022-09-04T22:50:50.950Z,58.83
2022-09-04T22:53:37.038Z,58.98
2022-09-04T22:56:24.830Z,58.81
2022-09-04T22:58:52.941Z,58.72
2022-09-04T23:01:26.575Z,58.81
2022-09-04T23:04:37.614Z,58.87
2022-09-04T23:13:20.661Z,59.00
2022-09-04T23:13:51.185Z,58.89
2022-09-04T23:13:53.168Z,59.07
2022-09-04T23:16:37.060Z,59.23
2022-09-04T23:20:30.297Z,59.02
2022-09-04T23:26:45.673Z,58.71
2022-09-04T23:26:47.005Z,58.67
2022-09-04T23:29:09.413Z,58.61
2022-09-04T23:32:09.399Z,59.11
2022-09-04T23:34:56.004Z,58.98
2022-09-04T23:38:01.167Z,59.12
2022-09-04T23:40:27.629Z,59.14
2022-09-04T23:43:18.665Z,59.08
2022-09-04T23:46:01.650Z,59.13
2022-09-04T23:48:47.270Z,59.09
2022-09-04T23:51:40.762Z,58.90
2022-09-04T23:54:28.252Z,58.66
2022-09-04T23:57:00.637Z,58.78
2022-09-04T23:59:38.296Z,58.83
